Sneeuw/IJzel/Bevriezing van: 24-01-2021 03:00 tot: 10:00 waarschuwing voor: Sneeuw/IJzel/Bevriezing niveau: Geel info button
Lokaal kans op gladheid door winterse buien (hagel, sneeuw).Vooral later in de nacht en vroege ochtend ook op meerdere plekken glad door bevriezing van natte weggedeelten.Kans op gladheid.Alle verkeersdeelnemers kunnen hinder ondervinden.Pas uw rijgedrag aan.Volg weerberichten en waarschuwingen.


Onweer radar Meer informatie blitzortung!


waarschuwing voor winterse neerslag Meer informatie rain snow radar



METAR rapporten vliegvelden

   
EHGR - Dalem
Gewijzigd: 24-01-2021 03:55
Grotendeels bewolkt  
Grotendeels bewolkt  
   Wind: Westen 3.1 m/s
Wind: Westen 3.1 m/s
Temperatuur: 2°C
Voelt als: -1°C
Dauwpunt: 1°C
Vochtigheid: 93%
Barometer: 995 hPa
Bewolking: Grotendeels bewolkt
Zicht: meer dan 10 km
Bewolking: Gedeeltelijk bewolkt 1800 ft,
Grotendeels bewolkt 2200 ft,
Grotendeels bewolkt 2600 ft
EHGR 240255Z AUTO 26006KT 9999 SCT018 BKN022 BKN026 02/01 Q0995 WHT
EHGR - Roosendaal
Gewijzigd: 24-01-2021 03:55
Grotendeels bewolkt  
Grotendeels bewolkt  
   Wind: Westen 3.1 m/s
Wind: Westen 3.1 m/s
Temperatuur: 2°C
Voelt als: -1°C
Dauwpunt: 1°C
Vochtigheid: 93%
Barometer: 995 hPa
Bewolking: Grotendeels bewolkt
Zicht: meer dan 10 km
Bewolking: Gedeeltelijk bewolkt 1800 ft,
Grotendeels bewolkt 2200 ft,
Grotendeels bewolkt 2600 ft
EHGR 240255Z AUTO 26006KT 9999 SCT018 BKN022 BKN026 02/01 Q0995 WHT
EHRD - Rotterdam
Gewijzigd: 24-01-2021 04:25
Sneeuw, Bewolking  
Sneeuw, Bewolking  
   Wind: Westen 3.1 m/s
Wind: Westen 3.1 m/s
Temperatuur: 1°C
Voelt als: -2°C
Dauwpunt: 1°C
Vochtigheid: 100%
Barometer: 996 hPa
Bewolking: Bewolking
Zicht: 3 km
Bewolking: Licht bewolkt 700 ft,
Gedeeltelijk bewolkt 1100 ft,
Licht bewolkt 1500 ft,
Bewolking 1600 ft
EHRD 240325Z AUTO 28006KT 250V320 3200 SN FEW007 SCT011 FEW015CB OVC016 01/01 Q0996 REDZSN NOSIG
EHLW - Urk
Gewijzigd: 24-01-2021 03:55
Bewolking  
Bewolking  
   Wind: WNW 1 m/s
Wind: WNW 1 m/s
Temperatuur: 0°C
Dauwpunt: 0°C
Vochtigheid: 100%
Barometer: 994 hPa
Bewolking: Bewolking
Zicht: meer dan 10 km
Bewolking: Grotendeels bewolkt 9300 ft,
Bewolking 9900 ft
EHLW 240255Z AUTO 30002KT 9999 BKN093 OVC099 00/00 Q0994 BLU
EHDL - Veenendaal
Gewijzigd: 24-01-2021 03:55
Grotendeels bewolkt  
Grotendeels bewolkt  
   Wind: NNW 2.1 m/s
Wind: NNW 2.1 m/s
Temperatuur: 2°C
Voelt als: 0°C
Dauwpunt: 1°C
Vochtigheid: 93%
Barometer: 994 hPa
Bewolking: Grotendeels bewolkt
Zicht: meer dan 10 km
Bewolking: Licht bewolkt 2500 ft,
Grotendeels bewolkt 4100 ft
EHDL 240255Z AUTO 34004KT 320V030 9999 FEW025 BKN041 02/01 Q0994 REDZ BLU
EHRD - Vianen
Gewijzigd: 24-01-2021 04:25
Sneeuw, Bewolking  
Sneeuw, Bewolking  
   Wind: Westen 3.1 m/s
Wind: Westen 3.1 m/s
Temperatuur: 1°C
Voelt als: -2°C
Dauwpunt: 1°C
Vochtigheid: 100%
Barometer: 996 hPa
Bewolking: Bewolking
Zicht: 3 km
Bewolking: Licht bewolkt 700 ft,
Gedeeltelijk bewolkt 1100 ft,
Licht bewolkt 1500 ft,
Bewolking 1600 ft
EHRD 240325Z AUTO 28006KT 250V320 3200 SN FEW007 SCT011 FEW015CB OVC016 01/01 Q0996 REDZSN NOSIG

Script ontwikkeld door  Saratoga-weather.org Aangepast voor de template door  Weerstation Leuven

U vindt ons ook hier:

Het Weer Aktueel

UK Metoffice

European Weather Network

WeatherCloud

Weather Underground

AWEKAS

Citizen Weather Observer Program (CWOP)

HAMweather, WeatherForYou, PWS Weather

Apparatuur in gebruik:

Weerstation
Davis VP2 weatherstation

Weerprogramma
Meteobridge

Weercomputer
Asus WL_330N3G

Davis VP2 weatherstation

Meteobridge

Asus WL_330N3G